Terminal Aerodrome Forecast
Issued by NWS Newport/Morehead City, NC

Home | Current Version | Previous Version | Text Only | Print | Product List | Glossary Off
Versions: 1 2 3 4 5 6 7 8 9 10 11 12 13 14 15 16 17 18 19 20 21 22 23

000
FTUS42 KMHX 300536
TAFEWN
TAF
KEWN 300536Z 3006/3106 03004KT P6SM SCT040
     FM300900 03003KT 5SM BR BKN007
     FM301300 04007KT P6SM SCT015 BKN040
     FM301700 04009KT P6SM VCSH BKN040
     FM302200 04005KT P6SM BKN040=

USA.gov is the U.S. government's official web portal to all federal, state and local government web resources and services.